Time;durP1;ratioP1;P1;durP2;ratioP2;P2;SDS_P1;SDS_P2;PMS_P1;PMS_P2;Temp;Humidity;BMP_temperature;BMP_pressure;BME280_temperature;BME280_humidity;BME280_pressure;Samples;Min_cycle;Max_cycle;Signal;HPM_P1;HPM_P2
2023/06/10 00:01:30;;;;;;;5.68;4.43;;;16.90;99.90;;;;;;5020975;28;20108;-89
2023/06/10 00:03:55;;;;;;;8.05;3.70;;;16.90;99.90;;;;;;5028649;28;20034;-88
2023/06/10 00:06:24;;;;;;;7.53;4.90;;;16.90;99.90;;;;;;5026768;28;20558;-89
2023/06/10 00:08:50;;;;;;;8.45;4.43;;;16.90;99.90;;;;;;5022123;28;20053;-89
2023/06/10 00:11:16;;;;;;;7.38;4.38;;;16.90;99.90;;;;;;5023106;28;20517;-89
2023/06/10 00:13:41;;;;;;;11.57;4.57;;;16.90;99.90;;;;;;5039599;28;20054;-89
2023/06/10 00:16:07;;;;;;;12.05;4.40;;;16.90;99.90;;;;;;5022400;28;20051;-89
2023/06/10 00:18:32;;;;;;;13.85;4.60;;;16.90;99.90;;;;;;5021278;28;20056;-90
2023/06/10 00:21:04;;;;;;;7.95;3.88;;;16.90;99.90;;;;;;5038378;28;20143;-89
2023/06/10 00:23:37;;;;;;;7.50;4.80;;;16.80;99.90;;;;;;5039120;28;20128;-89
2023/06/10 00:26:03;;;;;;;10.90;5.05;;;16.90;99.90;;;;;;5039724;28;20028;-90
2023/06/10 00:28:29;;;;;;;9.38;4.57;;;16.90;99.90;;;;;;5021501;28;20040;-89
2023/06/10 00:30:54;;;;;;;10.93;5.80;;;16.90;99.90;;;;;;5039445;28;20014;-89
2023/06/10 00:33:20;;;;;;;12.35;4.75;;;16.90;99.90;;;;;;5021854;28;20115;-89
2023/06/10 00:35:46;;;;;;;5.80;4.07;;;16.90;99.90;;;;;;5022168;28;20513;-89
2023/06/10 00:38:14;;;;;;;8.32;5.95;;;17.00;99.90;;;;;;5024572;28;20030;-89
2023/06/10 00:40:40;;;;;;;8.05;5.50;;;16.90;99.90;;;;;;5022471;28;20018;-88
2023/06/10 00:43:07;;;;;;;7.45;4.90;;;16.90;99.90;;;;;;5022061;28;20035;-90
2023/06/10 00:45:33;;;;;;;7.85;5.10;;;17.00;99.90;;;;;;5039406;28;20249;-89
2023/06/10 00:48:00;;;;;;;11.77;5.15;;;16.90;99.90;;;;;;5039384;28;20025;-89
2023/06/10 00:50:26;;;;;;;9.35;5.15;;;17.00;99.90;;;;;;5021709;28;20068;-90
2023/06/10 00:52:54;;;;;;;6.30;4.65;;;17.00;99.90;;;;;;5039324;28;20037;-89
2023/06/10 00:55:20;;;;;;;7.70;4.13;;;17.00;99.90;;;;;;5023655;28;20041;-89
2023/06/10 00:57:48;;;;;;;8.88;3.90;;;17.00;99.90;;;;;;5039557;28;20085;-89
2023/06/10 01:00:16;;;;;;;11.60;4.32;;;17.00;99.90;;;;;;5039646;28;20017;-89
2023/06/10 01:02:41;;;;;;;5.18;3.58;;;17.00;99.90;;;;;;5039403;28;20456;-89
2023/06/10 01:05:09;;;;;;;5.18;4.03;;;17.00;99.90;;;;;;5021507;28;20025;-89
2023/06/10 01:07:47;;;;;;;13.10;4.20;;;17.00;99.90;;;;;;5021614;28;20075;-90
2023/06/10 01:10:34;;;;;;;8.35;4.57;;;17.00;99.90;;;;;;5022124;28;20067;-88
2023/06/10 01:13:08;;;;;;;11.75;4.78;;;17.10;99.90;;;;;;5039824;28;20045;-89
2023/06/10 01:15:34;;;;;;;10.82;5.10;;;17.10;99.90;;;;;;5020009;28;20038;-89
2023/06/10 01:18:08;;;;;;;5.85;4.45;;;17.10;99.90;;;;;;5018791;28;20059;-89
2023/06/10 01:20:36;;;;;;;10.70;4.10;;;17.20;99.90;;;;;;5036211;28;20032;-90
2023/06/10 01:23:03;;;;;;;4.55;3.90;;;17.10;99.90;;;;;;5018227;28;20056;-89
2023/06/10 01:25:32;;;;;;;8.93;3.67;;;17.10;99.90;;;;;;5018278;28;20029;-89
2023/06/10 01:28:12;;;;;;;12.35;5.25;;;17.10;99.90;;;;;;5036046;28;20025;-89
2023/06/10 01:31:12;;;;;;;6.82;4.00;;;17.10;99.90;;;;;;5018275;28;20409;-90
2023/06/10 01:33:42;;;;;;;10.40;4.68;;;17.10;99.90;;;;;;5017966;28;20069;-88
2023/06/10 01:36:09;;;;;;;8.80;4.00;;;17.10;99.90;;;;;;5018530;28;20516;-89
2023/06/10 01:38:43;;;;;;;6.07;4.05;;;17.10;99.90;;;;;;5017930;28;20470;-90
2023/06/10 01:41:10;;;;;;;4.65;4.15;;;17.00;99.90;;;;;;5017970;28;20025;-89
2023/06/10 01:43:38;;;;;;;8.23;4.50;;;17.00;99.90;;;;;;5035431;28;20524;-89
2023/06/10 01:46:04;;;;;;;8.95;4.50;;;17.10;99.90;;;;;;5017474;28;20021;-89
2023/06/10 01:48:29;;;;;;;5.63;4.45;;;17.10;99.90;;;;;;5017836;28;20179;-89
2023/06/10 01:50:56;;;;;;;5.30;4.05;;;17.10;99.90;;;;;;5017887;28;20021;-89
2023/06/10 01:53:22;;;;;;;12.32;5.60;;;17.00;99.90;;;;;;5016756;28;20512;-89
2023/06/10 01:55:48;;;;;;;5.50;4.93;;;17.00;99.90;;;;;;5017870;28;20037;-89
2023/06/10 01:58:14;;;;;;;9.95;4.70;;;17.00;99.90;;;;;;5035191;28;20036;-90
2023/06/10 02:00:40;;;;;;;5.82;4.68;;;17.00;99.90;;;;;;5017832;28;20438;-89
2023/06/10 02:03:05;;;;;;;10.82;4.85;;;17.00;99.90;;;;;;5035089;28;20037;-89
2023/06/10 02:05:31;;;;;;;7.53;4.93;;;17.00;99.90;;;;;;5017072;28;20025;-90
2023/06/10 02:07:57;;;;;;;7.85;4.68;;;17.00;99.90;;;;;;5035190;28;20031;-89
2023/06/10 02:10:23;;;;;;;7.60;4.88;;;16.90;99.90;;;;;;5018856;28;20116;-89
2023/06/10 02:12:49;;;;;;;9.95;4.80;;;16.90;99.90;;;;;;5018092;28;20021;-90
2023/06/10 02:15:15;;;;;;;4.55;4.10;;;16.90;99.90;;;;;;5017477;28;20074;-89
2023/06/10 02:17:40;;;;;;;6.85;5.20;;;16.80;99.90;;;;;;5017643;28;20028;-90
2023/06/10 02:20:07;;;;;;;6.78;4.43;;;16.80;99.90;;;;;;5017324;28;20460;-90
2023/06/10 02:22:33;;;;;;;9.00;5.22;;;16.80;99.90;;;;;;5017422;28;20026;-89
2023/06/10 02:24:59;;;;;;;12.50;5.13;;;16.70;99.90;;;;;;5017212;28;20037;-89
2023/06/10 02:27:25;;;;;;;8.43;4.43;;;16.70;99.90;;;;;;5016127;28;20095;-88
2023/06/10 02:29:50;;;;;;;8.85;4.47;;;16.60;99.90;;;;;;5016972;28;20040;-89
2023/06/10 02:32:16;;;;;;;5.72;4.13;;;16.60;99.90;;;;;;5017292;28;20496;-89
2023/06/10 02:34:43;;;;;;;6.07;4.47;;;16.60;99.90;;;;;;5017118;28;20096;-89
2023/06/10 02:37:09;;;;;;;7.93;5.13;;;16.60;99.90;;;;;;5017204;28;20070;-89
2023/06/10 02:39:34;;;;;;;6.57;4.07;;;16.60;99.90;;;;;;5034506;28;20030;-89
2023/06/10 02:42:00;;;;;;;4.18;3.70;;;16.60;99.90;;;;;;5034676;28;20038;-89
2023/06/10 02:44:26;;;;;;;5.43;3.90;;;16.60;99.90;;;;;;5017203;28;20021;-89
2023/06/10 02:46:51;;;;;;;10.10;3.90;;;16.60;99.90;;;;;;5016552;28;20064;-89
2023/06/10 02:49:17;;;;;;;5.40;3.35;;;16.60;99.90;;;;;;5015293;28;20528;-90
2023/06/10 02:51:43;;;;;;;12.73;3.65;;;16.60;99.90;;;;;;5016595;28;20068;-89
2023/06/10 02:54:09;;;;;;;4.93;3.15;;;16.60;99.90;;;;;;5017341;28;20079;-89
2023/06/10 02:56:36;;;;;;;12.98;3.65;;;16.60;99.90;;;;;;5034422;28;20010;-89
2023/06/10 02:59:02;;;;;;;3.83;3.10;;;16.50;99.90;;;;;;5016693;28;20030;-89
2023/06/10 03:01:28;;;;;;;8.23;3.90;;;16.50;99.90;;;;;;5016494;28;20030;-89
2023/06/10 03:03:56;;;;;;;11.43;3.70;;;16.40;99.90;;;;;;5018198;28;20509;-88
2023/06/10 03:06:24;;;;;;;6.85;3.55;;;16.40;99.90;;;;;;5018314;28;20028;-89
2023/06/10 03:08:49;;;;;;;4.75;3.65;;;16.40;99.90;;;;;;5023709;28;20029;-88
2023/06/10 03:11:15;;;;;;;3.50;2.80;;;16.30;99.90;;;;;;5031344;28;20017;-88
2023/06/10 03:13:41;;;;;;;7.25;4.57;;;16.30;99.90;;;;;;5041122;28;20163;-89
2023/06/10 03:16:07;;;;;;;10.50;3.80;;;16.30;99.90;;;;;;5016270;28;20022;-89
2023/06/10 03:18:33;;;;;;;17.77;5.00;;;16.20;99.90;;;;;;5016192;28;20516;-89
2023/06/10 03:20:59;;;;;;;7.18;4.05;;;16.10;99.90;;;;;;5016189;28;20025;-89
2023/06/10 03:23:25;;;;;;;7.40;3.95;;;16.10;99.90;;;;;;5015866;28;20040;-89
2023/06/10 03:25:50;;;;;;;10.50;4.75;;;16.20;99.90;;;;;;5016388;28;20470;-89
2023/06/10 03:28:16;;;;;;;5.78;4.28;;;16.20;99.90;;;;;;5016101;28;20025;-89
2023/06/10 03:30:42;;;;;;;12.32;4.90;;;16.20;99.90;;;;;;5033412;28;20053;-89
2023/06/10 03:33:07;;;;;;;10.60;4.30;;;16.20;99.90;;;;;;5016085;28;20040;-89
2023/06/10 03:35:34;;;;;;;9.15;4.25;;;16.20;99.90;;;;;;5034141;28;20031;-89
2023/06/10 03:38:00;;;;;;;10.68;4.55;;;16.20;99.90;;;;;;5016021;28;20040;-89
2023/06/10 03:40:26;;;;;;;8.07;5.00;;;16.30;99.90;;;;;;5015877;28;20437;-88
2023/06/10 03:42:51;;;;;;;5.28;4.45;;;16.30;99.90;;;;;;5016488;28;20128;-89
2023/06/10 03:45:17;;;;;;;6.00;3.95;;;16.40;99.90;;;;;;5033678;28;20105;-89
2023/06/10 03:47:43;;;;;;;14.05;4.95;;;16.40;99.90;;;;;;5015909;28;20022;-89
2023/06/10 03:50:10;;;;;;;7.75;4.20;;;16.50;99.90;;;;;;5015901;28;20036;-90
2023/06/10 03:52:39;;;;;;;6.55;4.97;;;16.50;99.90;;;;;;5015920;28;20026;-88
2023/06/10 03:55:05;;;;;;;8.65;4.88;;;16.50;99.90;;;;;;5033286;28;20026;-89
2023/06/10 03:57:31;;;;;;;9.02;4.45;;;16.50;99.90;;;;;;5015582;28;20512;-89
2023/06/10 03:59:56;;;;;;;12.00;6.05;;;16.60;99.90;;;;;;5015369;28;20116;-89
2023/06/10 04:02:23;;;;;;;6.53;4.22;;;16.60;99.90;;;;;;5033308;28;20029;-89
2023/06/10 04:04:48;;;;;;;12.52;4.35;;;16.60;99.90;;;;;;5032970;28;20498;-89
2023/06/10 04:07:14;;;;;;;7.93;4.30;;;16.70;99.90;;;;;;5033318;28;20024;-89
2023/06/10 04:09:40;;;;;;;7.50;3.65;;;16.60;99.90;;;;;;5033177;28;20112;-90
2023/06/10 04:12:08;;;;;;;7.88;4.43;;;16.60;99.90;;;;;;5014999;28;20437;-89
2023/06/10 04:14:36;;;;;;;8.85;3.97;;;16.60;99.90;;;;;;5015684;28;20053;-89
2023/06/10 04:17:02;;;;;;;4.30;3.90;;;16.60;99.90;;;;;;5032985;28;20028;-89
2023/06/10 04:19:28;;;;;;;4.72;4.00;;;16.60;99.90;;;;;;5015386;28;20030;-89
2023/06/10 04:21:54;;;;;;;18.55;4.75;;;16.60;99.90;;;;;;5033028;28;20049;-88
2023/06/10 04:24:19;;;;;;;10.27;4.60;;;16.70;99.90;;;;;;5015588;28;20072;-89
2023/06/10 04:26:46;;;;;;;7.95;3.63;;;16.70;99.90;;;;;;5032534;28;20113;-89
2023/06/10 04:29:11;;;;;;;8.20;3.90;;;16.70;99.90;;;;;;5015215;28;20064;-89
2023/06/10 04:31:37;;;;;;;7.18;3.58;;;16.70;99.90;;;;;;5032645;28;20053;-89
2023/06/10 04:34:02;;;;;;;3.55;3.03;;;16.70;99.90;;;;;;5032963;28;20494;-89
2023/06/10 04:36:29;;;;;;;6.75;3.53;;;16.80;99.90;;;;;;5015431;28;20379;-90
2023/06/10 04:38:55;;;;;;;5.75;3.45;;;16.80;99.90;;;;;;5033373;28;20097;-90
2023/06/10 04:41:22;;;;;;;5.35;4.15;;;16.80;99.90;;;;;;5015340;28;20473;-89
2023/06/10 04:43:47;;;;;;;17.08;5.25;;;16.90;99.90;;;;;;5015069;28;20525;-90
2023/06/10 04:46:13;;;;;;;8.00;6.38;;;16.90;99.90;;;;;;5032869;28;20022;-89
2023/06/10 04:48:39;;;;;;;10.30;6.05;;;17.00;99.90;;;;;;5015099;28;20022;-89
2023/06/10 04:51:05;;;;;;;9.35;6.13;;;17.10;99.90;;;;;;5016199;28;20617;-90
2023/06/10 04:53:31;;;;;;;6.70;5.35;;;17.20;99.90;;;;;;5019762;28;20037;-89
2023/06/10 04:55:57;;;;;;;10.43;4.07;;;17.20;99.90;;;;;;5038680;28;20026;-89
2023/06/10 04:58:23;;;;;;;3.92;3.53;;;17.20;99.90;;;;;;5036508;28;20087;-90
2023/06/10 05:00:49;;;;;;;10.70;4.05;;;17.30;99.90;;;;;;5036387;28;20097;-89
2023/06/10 05:03:14;;;;;;;7.45;3.83;;;17.50;99.90;;;;;;5036421;28;20124;-89
2023/06/10 05:05:40;;;;;;;5.53;3.17;;;17.60;99.90;;;;;;5018795;28;20021;-89
2023/06/10 05:08:06;;;;;;;4.63;3.90;;;17.90;99.90;;;;;;5036249;28;20107;-89
2023/06/10 05:10:32;;;;;;;8.45;3.30;;;18.20;99.90;;;;;;5018914;28;20743;-89
2023/06/10 05:12:58;;;;;;;5.38;4.00;;;18.40;99.90;;;;;;5018971;28;20506;-90
2023/06/10 05:15:24;;;;;;;5.45;3.83;;;18.70;99.90;;;;;;5018093;28;20490;-89
2023/06/10 05:17:50;;;;;;;4.50;3.67;;;19.00;99.90;;;;;;5017134;28;20033;-89
2023/06/10 05:20:15;;;;;;;4.97;3.17;;;19.20;99.90;;;;;;5018065;28;20018;-89
2023/06/10 05:22:41;;;;;;;4.65;3.20;;;19.40;99.90;;;;;;5035591;28;20037;-89
2023/06/10 05:25:08;;;;;;;5.10;3.20;;;19.50;99.90;;;;;;5036265;28;20057;-90
2023/06/10 05:27:33;;;;;;;5.82;2.95;;;19.60;99.90;;;;;;5018368;28;20041;-89
2023/06/10 05:29:59;;;;;;;6.70;3.53;;;19.70;99.90;;;;;;5036054;28;20375;-89
2023/06/10 05:32:25;;;;;;;3.65;2.70;;;19.90;99.90;;;;;;5018010;28;20021;-89
2023/06/10 05:34:50;;;;;;;6.80;3.47;;;20.10;99.90;;;;;;5018077;28;20121;-89
2023/06/10 05:37:16;;;;;;;3.47;2.67;;;20.20;99.90;;;;;;5018223;28;20029;-89
2023/06/10 05:39:41;;;;;;;2.85;2.25;;;20.40;99.90;;;;;;5018297;28;20559;-89
2023/06/10 05:42:08;;;;;;;2.40;2.00;;;20.40;99.90;;;;;;5018376;28;20453;-89
2023/06/10 05:44:34;;;;;;;3.67;2.13;;;20.50;99.90;;;;;;5018173;28;20036;-89
2023/06/10 05:46:59;;;;;;;2.67;2.47;;;20.60;99.90;;;;;;5018130;28;20029;-89
2023/06/10 05:49:25;;;;;;;2.47;2.28;;;20.70;99.90;;;;;;5035554;28;20032;-88
2023/06/10 05:51:52;;;;;;;2.97;2.47;;;20.80;99.90;;;;;;5018508;28;20017;-89
2023/06/10 05:54:18;;;;;;;5.10;2.40;;;20.90;99.90;;;;;;5035452;28;20061;-89
2023/06/10 05:56:44;;;;;;;3.30;2.30;;;21.00;99.90;;;;;;5036134;28;20075;-89
2023/06/10 05:59:09;;;;;;;2.92;2.25;;;21.10;99.90;;;;;;5019747;28;20569;-89
2023/06/10 06:01:35;;;;;;;3.72;1.80;;;21.30;99.90;;;;;;5018679;28;20064;-89
2023/06/10 06:04:01;;;;;;;2.80;1.88;;;21.40;99.90;;;;;;5019657;28;20037;-89
2023/06/10 06:06:27;;;;;;;2.92;2.63;;;21.80;99.90;;;;;;5036165;28;20042;-89
2023/06/10 06:08:52;;;;;;;3.17;2.28;;;22.30;99.90;;;;;;5019377;28;20083;-89
2023/06/10 06:11:18;;;;;;;2.25;1.95;;;22.80;99.90;;;;;;5018571;28;20132;-89
2023/06/10 06:13:44;;;;;;;3.67;2.60;;;23.40;99.90;;;;;;5015509;28;20041;-91
2023/06/10 06:16:09;;;;;;;3.90;2.50;;;23.90;99.90;;;;;;5032231;28;20077;-88
2023/06/10 06:18:35;;;;;;;3.33;2.17;;;24.10;99.90;;;;;;5038901;28;20022;-89
2023/06/10 06:21:01;;;;;;;2.50;1.92;;;24.00;99.90;;;;;;5026155;28;20034;-90
2023/06/10 06:23:26;;;;;;;5.43;2.58;;;23.90;99.90;;;;;;5017918;28;20087;-89
2023/06/10 06:25:52;;;;;;;3.55;1.85;;;23.60;99.90;;;;;;5015821;28;20525;-90
2023/06/10 06:28:18;;;;;;;3.33;2.65;;;23.30;99.90;;;;;;5015459;28;20034;-89
2023/06/10 06:30:45;;;;;;;3.38;2.03;;;23.00;99.90;;;;;;5015009;28;20029;-90
2023/06/10 06:33:10;;;;;;;6.63;2.05;;;22.70;99.90;;;;;;5014171;28;20029;-90
2023/06/10 06:35:38;;;;;;;8.05;2.28;;;22.50;99.90;;;;;;5015065;28;20084;-89
2023/06/10 06:38:04;;;;;;;2.50;1.98;;;22.30;99.90;;;;;;5013950;28;20026;-89
2023/06/10 06:40:30;;;;;;;4.18;2.05;;;22.20;99.90;;;;;;5014283;28;20466;-89
2023/06/10 06:42:55;;;;;;;2.28;1.90;;;22.10;99.90;;;;;;5013365;28;20029;-90
2023/06/10 06:45:21;;;;;;;4.97;2.25;;;22.00;99.90;;;;;;5013557;28;20025;-89
2023/06/10 06:47:46;;;;;;;3.22;2.40;;;22.00;99.90;;;;;;5015126;28;20051;-90
2023/06/10 06:50:12;;;;;;;3.97;2.22;;;21.70;99.90;;;;;;5016155;28;20410;-89
2023/06/10 06:52:38;;;;;;;5.07;2.65;;;21.70;99.90;;;;;;5018991;28;20030;-90
2023/06/10 06:55:04;;;;;;;2.58;2.38;;;21.60;99.90;;;;;;5013691;28;20402;-89
2023/06/10 06:57:30;;;;;;;3.65;2.10;;;21.50;99.90;;;;;;5014373;28;20478;-89
2023/06/10 06:59:55;;;;;;;3.55;2.55;;;21.40;99.90;;;;;;5014514;28;20040;-90
2023/06/10 07:02:21;;;;;;;8.02;4.70;;;21.40;99.90;;;;;;5013123;28;20029;-91
2023/06/10 07:04:49;;;;;;;7.05;4.22;;;21.40;99.90;;;;;;5013235;28;20033;-90
2023/06/10 07:07:15;;;;;;;5.38;2.22;;;21.40;99.90;;;;;;5013101;28;20021;-89
2023/06/10 07:09:40;;;;;;;6.82;2.58;;;21.50;99.90;;;;;;5013539;28;20478;-90
2023/06/10 07:12:07;;;;;;;3.63;3.03;;;21.60;99.90;;;;;;5013009;28;20029;-90
2023/06/10 07:14:32;;;;;;;9.55;6.00;;;21.70;99.90;;;;;;5012174;28;20053;-91
2023/06/10 07:16:58;;;;;;;9.43;4.38;;;21.70;99.90;;;;;;5013134;28;20034;-91
2023/06/10 07:19:24;;;;;;;8.02;3.90;;;21.60;99.90;;;;;;5014203;28;20446;-91
2023/06/10 07:21:49;;;;;;;5.05;3.40;;;21.60;99.90;;;;;;5013306;28;20029;-91
2023/06/10 07:24:15;;;;;;;5.63;3.30;;;21.50;99.90;;;;;;5012926;28;20038;-90
2023/06/10 07:26:41;;;;;;;3.70;2.72;;;21.40;99.90;;;;;;5012901;28;20029;-91
2023/06/10 07:29:07;;;;;;;9.18;4.00;;;21.20;99.90;;;;;;5012459;28;20030;-91
2023/06/10 07:31:32;;;;;;;4.68;2.70;;;21.00;99.90;;;;;;5012610;28;20034;-90
2023/06/10 07:33:58;;;;;;;6.05;2.70;;;20.70;99.90;;;;;;5012935;28;20025;-92
2023/06/10 07:36:24;;;;;;;5.57;3.85;;;20.40;99.90;;;;;;5012864;28;20036;-91
2023/06/10 07:38:49;;;;;;;9.40;3.75;;;20.20;99.90;;;;;;5013886;28;20017;-90
2023/06/10 07:41:17;;;;;;;7.80;4.30;;;20.00;99.90;;;;;;5013712;28;20022;-90
2023/06/10 07:43:43;;;;;;;13.38;5.07;;;19.90;99.90;;;;;;5013529;28;20026;-91
2023/06/10 07:46:09;;;;;;;4.88;3.35;;;19.80;99.90;;;;;;5011563;28;20037;-88
2023/06/10 07:48:34;;;;;;;9.82;3.90;;;19.80;99.90;;;;;;5013481;28;20029;-89
2023/06/10 07:51:00;;;;;;;3.47;2.13;;;19.70;99.90;;;;;;5012644;28;20048;-89
2023/06/10 07:53:26;;;;;;;9.50;6.32;;;19.70;99.90;;;;;;5014699;28;20105;-89
2023/06/10 07:55:51;;;;;;;3.30;2.05;;;19.90;99.90;;;;;;5012859;28;20022;-89
2023/06/10 07:58:17;;;;;;;8.55;3.92;;;20.00;99.90;;;;;;5013891;28;20029;-90
2023/06/10 08:00:42;;;;;;;9.48;3.00;;;20.10;99.90;;;;;;5013109;28;20033;-90
2023/06/10 08:03:08;;;;;;;5.07;2.97;;;20.30;99.90;;;;;;5013394;28;20050;-89
2023/06/10 08:05:34;;;;;;;5.00;2.60;;;20.40;99.90;;;;;;5012540;28;20022;-90
2023/06/10 08:07:59;;;;;;;3.88;2.75;;;20.60;99.90;;;;;;5013701;28;20175;-89
2023/06/10 08:10:25;;;;;;;2.15;1.52;;;20.80;99.90;;;;;;5012618;28;20034;-89
2023/06/10 08:12:51;;;;;;;2.85;1.73;;;20.90;99.90;;;;;;5014565;28;20026;-90
2023/06/10 08:15:16;;;;;;;4.60;1.90;;;21.10;99.90;;;;;;5015644;28;20508;-89
2023/06/10 08:17:42;;;;;;;7.57;5.97;;;21.30;99.90;;;;;;5033392;28;20514;-89
2023/06/10 08:20:08;;;;;;;2.95;1.70;;;21.40;99.90;;;;;;5016965;28;20494;-90
2023/06/10 08:22:33;;;;;;;3.17;1.90;;;21.40;99.90;;;;;;5015728;28;20494;-89
2023/06/10 08:24:59;;;;;;;14.40;11.23;;;21.40;99.90;;;;;;5016510;28;20030;-89
2023/06/10 08:27:25;;;;;;;5.40;2.33;;;21.50;99.90;;;;;;5037289;28;20104;-88
2023/06/10 08:29:51;;;;;;;2.83;2.20;;;21.60;99.90;;;;;;5019267;28;20044;-89
2023/06/10 08:32:16;;;;;;;3.78;1.92;;;21.60;99.90;;;;;;5019509;28;20064;-89
2023/06/10 08:34:42;;;;;;;3.85;2.05;;;21.50;99.90;;;;;;5019655;28;20088;-89
2023/06/10 08:37:07;;;;;;;4.95;2.15;;;21.50;99.90;;;;;;5019524;28;20035;-88
2023/06/10 08:39:33;;;;;;;4.30;2.10;;;21.40;99.90;;;;;;5019125;28;20490;-88
2023/06/10 08:42:26;;;;;;;6.00;2.30;;;21.40;99.90;;;;;;5019434;28;20060;-89
2023/06/10 08:44:55;;;;;;;2.80;2.15;;;21.40;99.90;;;;;;5036943;28;20060;-89
2023/06/10 08:47:24;;;;;;;3.47;2.53;;;21.40;99.90;;;;;;5019064;28;20080;-89
2023/06/10 08:49:52;;;;;;;1.92;1.73;;;21.70;99.90;;;;;;5040981;28;20026;-89
2023/06/10 08:52:19;;;;;;;2.53;2.17;;;21.80;99.90;;;;;;5019269;28;20029;-89
2023/06/10 08:54:58;;;;;;;4.82;2.10;;;21.90;99.90;;;;;;5019122;28;20021;-89
2023/06/10 08:57:26;;;;;;;2.65;2.25;;;22.00;99.90;;;;;;5019159;28;20029;-89
2023/06/10 08:59:54;;;;;;;6.15;2.22;;;22.20;99.90;;;;;;5019063;28;20108;-90
2023/06/10 09:02:20;;;;;;;2.22;1.80;;;22.40;99.90;;;;;;5018881;28;20030;-90
2023/06/10 09:04:49;;;;;;;3.65;2.10;;;22.70;99.90;;;;;;5018870;28;20120;-88
2023/06/10 09:07:16;;;;;;;2.20;1.80;;;23.20;99.90;;;;;;5018204;28;20029;-90
2023/06/10 09:09:45;;;;;;;2.15;1.30;;;23.60;99.90;;;;;;5018768;28;20486;-90
2023/06/10 09:12:13;;;;;;;1.85;0.95;;;23.80;99.90;;;;;;5019028;28;20060;-90
2023/06/10 09:14:39;;;;;;;4.38;2.17;;;23.80;99.90;;;;;;5017842;28;20516;-90
2023/06/10 09:17:05;;;;;;;4.03;1.20;;;24.10;99.90;;;;;;5036363;28;20026;-90
2023/06/10 09:19:32;;;;;;;1.83;1.08;;;24.60;99.90;;;;;;5017984;28;20021;-91
2023/06/10 09:21:58;;;;;;;3.38;1.42;;;25.20;99.90;;;;;;5050327;28;20033;-91
2023/06/10 09:24:25;;;;;;;3.25;1.98;;;26.00;98.90;;;;;;5059049;28;20037;-92
2023/06/10 09:27:01;;;;;;;4.32;1.92;;;26.00;98.70;;;;;;5025566;28;20029;-91
2023/06/10 09:29:27;;;;;;;1.90;1.30;;;26.00;97.70;;;;;;5019028;28;20026;-91
2023/06/10 09:31:53;;;;;;;3.00;2.15;;;25.40;99.90;;;;;;5036244;28;20056;-92
2023/06/10 09:34:18;;;;;;;2.65;2.08;;;25.20;99.90;;;;;;5035969;28;20132;-92
2023/06/10 09:36:45;;;;;;;4.38;2.50;;;25.00;99.90;;;;;;5017514;28;20048;-90
2023/06/10 09:39:16;;;;;;;4.25;2.22;;;25.40;99.90;;;;;;5018119;28;20029;-91
2023/06/10 09:41:43;;;;;;;2.75;1.63;;;26.30;99.90;;;;;;5017404;28;20029;-92
2023/06/10 09:44:14;;;;;;;6.63;2.30;;;27.00;99.80;;;;;;5035130;28;20094;-92
2023/06/10 09:46:40;;;;;;;4.03;1.45;;;27.40;92.40;;;;;;5034840;28;20033;-91
2023/06/10 09:49:06;;;;;;;2.22;1.75;;;27.40;89.20;;;;;;5035445;28;20028;-91
2023/06/10 09:51:32;;;;;;;4.32;2.17;;;27.80;91.50;;;;;;5018740;28;20025;-89
2023/06/10 09:54:01;;;;;;;4.43;1.73;;;28.00;86.50;;;;;;5019613;28;20239;-90
2023/06/10 09:56:37;;;;;;;5.50;2.50;;;28.00;85.10;;;;;;5017624;28;20061;-91
2023/06/10 09:59:06;;;;;;;3.78;1.45;;;27.80;84.60;;;;;;5035149;28;20507;-92
2023/06/10 10:01:33;;;;;;;2.63;2.03;;;27.30;85.40;;;;;;5017431;28;20030;-93
2023/06/10 10:03:59;;;;;;;3.25;1.90;;;27.00;87.70;;;;;;5017663;28;20514;-92
2023/06/10 10:06:25;;;;;;;2.55;1.67;;;26.70;92.80;;;;;;5017825;28;20026;-92
2023/06/10 10:08:52;;;;;;;4.35;2.03;;;26.50;91.20;;;;;;5017882;28;20025;-92
2023/06/10 10:11:21;;;;;;;3.33;2.20;;;26.30;91.90;;;;;;5016751;28;20478;-92
2023/06/10 10:13:48;;;;;;;2.67;1.95;;;26.10;96.00;;;;;;5016579;28;20540;-93
2023/06/10 10:16:30;;;;;;;6.28;2.47;;;26.10;94.20;;;;;;5034283;28;20032;-92
2023/06/10 10:18:59;;;;;;;4.20;2.00;;;26.30;94.10;;;;;;5017948;28;20040;-93
2023/06/10 10:21:31;;;;;;;3.90;1.67;;;26.40;93.00;;;;;;5017616;28;20064;-91
2023/06/10 10:24:05;;;;;;;3.80;2.67;;;26.30;91.40;;;;;;5017167;28;20061;-92
2023/06/10 10:26:32;;;;;;;10.25;2.72;;;25.90;92.50;;;;;;5035261;28;20382;-93
2023/06/10 10:29:04;;;;;;;4.32;1.98;;;25.50;97.10;;;;;;5035142;28;20033;-93
2023/06/10 10:31:33;;;;;;;3.97;2.13;;;25.20;99.90;;;;;;5021378;28;20028;-92
2023/06/10 10:34:00;;;;;;;3.35;2.50;;;25.20;99.90;;;;;;5034771;28;20078;-92
2023/06/10 10:36:27;;;;;;;7.10;2.13;;;25.20;99.90;;;;;;5034907;28;20075;-91
2023/06/10 10:38:53;;;;;;;2.33;2.00;;;25.10;98.70;;;;;;5017864;28;20052;-92
2023/06/10 10:41:20;;;;;;;5.78;2.47;;;24.80;98.70;;;;;;5034478;28;20053;-92
2023/06/10 10:43:47;;;;;;;4.57;2.28;;;24.80;99.90;;;;;;5017006;28;20038;-91
2023/06/10 10:46:17;;;;;;;2.65;2.15;;;24.60;99.90;;;;;;5017113;28;20022;-92
2023/06/10 10:48:44;;;;;;;6.38;2.05;;;24.70;99.90;;;;;;5024697;28;20033;-92
2023/06/10 10:51:10;;;;;;;8.73;2.30;;;24.70;99.90;;;;;;5035142;28;20024;-93
2023/06/10 10:53:40;;;;;;;4.45;2.10;;;24.70;99.90;;;;;;5016011;28;20416;-92
2023/06/10 10:56:08;;;;;;;4.57;2.47;;;24.80;99.90;;;;;;5016258;28;20026;-92
2023/06/10 10:58:34;;;;;;;5.90;2.15;;;25.00;99.90;;;;;;5017023;28;20076;-92
2023/06/10 11:01:00;;;;;;;4.00;2.15;;;25.40;99.90;;;;;;5034004;28;20056;-92
2023/06/10 11:03:32;;;;;;;4.05;1.88;;;25.60;99.90;;;;;;5015959;28;20042;-93
2023/06/10 11:05:58;;;;;;;3.00;1.92;;;25.60;96.80;;;;;;5016158;28;20021;-92
2023/06/10 11:08:33;;;;;;;4.90;2.20;;;25.50;98.20;;;;;;5016197;28;20040;-93
2023/06/10 11:10:59;;;;;;;11.32;1.95;;;25.20;99.40;;;;;;5016335;28;20022;-92
2023/06/10 11:13:26;;;;;;;4.35;1.55;;;25.20;98.90;;;;;;5015799;28;20041;-93
2023/06/10 11:15:56;;;;;;;5.78;2.20;;;25.20;97.70;;;;;;5033607;28;20021;-93
2023/06/10 11:18:26;;;;;;;4.53;2.00;;;25.00;98.40;;;;;;5033576;28;20029;-94
2023/06/10 11:20:59;;;;;;;6.03;1.92;;;24.90;98.70;;;;;;5034073;28;20079;-93
2023/06/10 11:23:28;;;;;;;5.40;1.67;;;25.00;99.90;;;;;;5034737;28;20033;-92
2023/06/10 11:26:15;;;;;;;2.85;1.95;;;25.10;99.20;;;;;;5047846;28;20040;-94
2023/06/10 11:28:49;;;;;;;5.78;1.45;;;25.00;99.80;;;;;;5016308;28;20421;-94
2023/06/10 11:31:23;;;;;;;5.65;1.98;;;25.10;99.40;;;;;;5033274;28;20466;-93
2023/06/10 11:33:58;;;;;;;3.20;2.05;;;25.20;97.90;;;;;;5015996;28;20521;-94
2023/06/10 11:36:25;;;;;;;3.95;1.88;;;25.10;98.40;;;;;;5033204;28;20429;-94
2023/06/10 11:39:10;;;;;;;4.88;1.90;;;25.00;98.40;;;;;;5015730;28;20115;-93
2023/06/10 11:41:38;;;;;;;2.80;1.67;;;24.80;99.90;;;;;;5016210;28;20030;-92
2023/06/10 11:44:27;;;;;;;4.18;2.10;;;24.80;99.90;;;;;;5033635;28;20072;-93
2023/06/10 11:46:53;;;;;;;2.58;1.60;;;25.10;99.90;;;;;;5016171;28;20107;-92
2023/06/10 11:49:20;;;;;;;7.93;2.03;;;25.30;97.80;;;;;;5016262;28;20029;-93
2023/06/10 11:51:49;;;;;;;7.75;2.30;;;25.70;97.70;;;;;;5015911;28;20022;-93
2023/06/10 11:54:16;;;;;;;2.72;1.98;;;25.80;92.90;;;;;;5016157;28;20028;-92
2023/06/10 11:56:41;;;;;;;6.53;1.58;;;25.60;91.20;;;;;;5032979;28;20393;-93
2023/06/10 11:59:07;;;;;;;4.18;2.00;;;25.50;91.50;;;;;;5016002;28;20018;-93
2023/06/10 12:01:41;;;;;;;6.13;3.65;;;25.30;94.30;;;;;;5015352;28;20035;-92
2023/06/10 12:04:09;;;;;;;4.55;2.30;;;25.10;94.00;;;;;;5015446;28;20030;-94
2023/06/10 12:06:51;;;;;;;6.57;2.80;;;25.00;95.20;;;;;;5016065;28;20124;-92
2023/06/10 12:09:20;;;;;;;5.93;1.85;;;25.10;99.00;;;;;;5016019;28;20069;-93
2023/06/10 12:11:49;;;;;;;5.40;2.83;;;25.30;98.80;;;;;;5016105;28;20121;-92
2023/06/10 12:14:15;;;;;;;5.13;2.90;;;25.50;98.80;;;;;;5016106;28;20045;-93
2023/06/10 12:16:49;;;;;;;9.02;3.00;;;25.50;98.20;;;;;;5015737;28;20386;-93
2023/06/10 12:19:15;;;;;;;9.02;3.15;;;25.40;97.40;;;;;;5015474;28;20025;-94
2023/06/10 12:21:41;;;;;;;3.53;2.00;;;25.20;97.10;;;;;;5015500;28;20091;-93
2023/06/10 12:24:11;;;;;;;5.88;3.05;;;25.10;98.30;;;;;;5021614;28;20208;-93
2023/06/10 12:26:42;;;;;;;5.35;3.22;;;25.10;99.90;;;;;;5016593;28;20018;-93
2023/06/10 12:29:18;;;;;;;3.78;2.03;;;25.00;99.50;;;;;;5055666;28;20035;-91
2023/06/10 12:31:55;;;;;;;8.35;4.13;;;24.90;98.10;;;;;;5055678;28;20089;-92
2023/06/10 12:34:31;;;;;;;8.85;3.85;;;24.90;99.90;;;;;;5042012;28;20104;-93
2023/06/10 12:36:57;;;;;;;7.32;2.72;;;24.80;98.70;;;;;;5034463;28;20098;-92
2023/06/10 12:39:23;;;;;;;8.45;3.60;;;24.90;99.90;;;;;;5034098;28;20082;-93
2023/06/10 12:41:49;;;;;;;8.23;2.88;;;25.00;98.20;;;;;;5016018;28;20021;-95
2023/06/10 12:44:15;;;;;;;3.42;2.20;;;25.20;97.20;;;;;;5014690;28;20107;-93
2023/06/10 12:46:41;;;;;;;5.63;2.22;;;25.20;95.80;;;;;;5015692;28;20474;-93